Station History

Weather Underground - logo

Station Historical Data
Daily Summary for February 25, 2018 Units:  English    Metric   Both
« Previous Day
Next Day »
Daily Weekly Monthly Yearly Custom
  High: Low: Average:
Temperature: 61.6 °F 30.8 °F 46 °F
Dew Point: 40.9 °F 27.4 °F 33.3 °F
Humidity: 89 % 37 % 64 %
Wind Speed: 5.8 mph 0.0 mph 1 mph
Wind Gust: 5.8 mph - -
Wind:- - SSW
Pressure: 30.39 in 30.19 in -
Precipitation: 0.00 in    
Historical Graphs
 
 
Tabular Data for February 25, 2018
Time Temperature Dew Point Pressure Wind Wind Speed Wind Gust Humidity Rainfall Rate (Hourly)
00:03 37.7 °F 29.1 °F 30.31 in Calm     71 % 0.00 in
00:08 38.0 °F 29.1 °F 30.31 in Calm     70 % 0.00 in
00:13 38.0 °F 29.4 °F 30.31 in Calm     71 % 0.00 in
00:18 37.7 °F 29.5 °F 30.31 in Calm     72 % 0.00 in
00:23 37.4 °F 29.2 °F 30.31 in Calm     72 % 0.00 in
00:28 37.3 °F 29.1 °F 30.31 in ESE 1.2 mph   72 % 0.00 in
00:34 37.3 °F 29.1 °F 30.31 in ESE 1.2 mph   72 % 0.00 in
00:39 37.9 °F 29.0 °F 30.31 in ESE 3.5 mph 3.5 mph 70 % 0.00 in
00:44 38.3 °F 29.0 °F 30.31 in ESE 1.2 mph   69 % 0.00 in
00:49 38.3 °F 29.0 °F 30.31 in ESE 1.2 mph   69 % 0.00 in
00:54 38.3 °F 29.0 °F 30.31 in ESE 1.2 mph   69 % 0.00 in
00:59 38.1 °F 28.8 °F 30.31 in Calm     69 % 0.00 in
01:04 37.9 °F 29.0 °F 30.31 in Calm     70 % 0.00 in
01:09 37.7 °F 28.8 °F 30.31 in Calm     70 % 0.00 in
01:14 37.5 °F 28.9 °F 30.31 in Calm     71 % 0.00 in
01:19 37.3 °F 28.8 °F 30.31 in Calm     71 % 0.00 in
01:24 37.1 °F 28.9 °F 30.31 in Calm     72 % 0.00 in
01:29 36.9 °F 29.1 °F 30.31 in Calm     73 % 0.00 in
01:34 36.7 °F 28.9 °F 30.31 in Calm     73 % 0.00 in
01:39 36.3 °F 29.5 °F 30.31 in Calm     76 % 0.00 in
01:44 35.9 °F 29.4 °F 30.31 in Calm     77 % 0.00 in
01:49 35.4 °F 28.9 °F 30.31 in Calm     77 % 0.00 in
01:54 35.7 °F 29.5 °F 30.31 in Calm     78 % 0.00 in
01:59 35.5 °F 29.6 °F 30.31 in ESE 1.2 mph   79 % 0.00 in
02:04 35.5 °F 29.9 °F 30.31 in Calm     80 % 0.00 in
02:09 35.6 °F 29.7 °F 30.31 in Calm     79 % 0.00 in
02:14 35.7 °F 29.5 °F 30.31 in Calm     78 % 0.00 in
02:19 35.6 °F 29.1 °F 30.31 in Calm     77 % 0.00 in
02:24 35.5 °F 29.0 °F 30.31 in Calm     77 % 0.00 in
02:29 35.3 °F 28.8 °F 30.31 in Calm     77 % 0.00 in
02:34 35.1 °F 28.9 °F 30.31 in Calm     78 % 0.00 in
02:39 34.9 °F 29.0 °F 30.31 in Calm     79 % 0.00 in
02:44 34.8 °F 29.0 °F 30.31 in Calm     79 % 0.00 in
02:49 34.8 °F 29.0 °F 30.31 in Calm     79 % 0.00 in
02:54 34.5 °F 28.7 °F 30.31 in Calm     79 % 0.00 in
02:59 34.0 °F 28.5 °F 30.31 in Calm     80 % 0.00 in
03:04 33.9 °F 28.4 °F 30.30 in Calm     80 % 0.00 in
03:09 34.0 °F 28.5 °F 30.31 in Calm     80 % 0.00 in
03:14 34.1 °F 28.6 °F 30.31 in Calm     80 % 0.00 in
03:19 34.1 °F 28.6 °F 30.31 in Calm     80 % 0.00 in
03:24 33.9 °F 28.4 °F 30.31 in Calm     80 % 0.00 in
03:29 33.6 °F 28.4 °F 30.31 in Calm     81 % 0.00 in
03:34 33.4 °F 28.5 °F 30.31 in Calm     82 % 0.00 in
03:39 33.2 °F 28.3 °F 30.31 in Calm     82 % 0.00 in
03:44 32.9 °F 28.0 °F 30.31 in Calm     82 % 0.00 in
03:49 32.7 °F 28.1 °F 30.31 in Calm     83 % 0.00 in
03:54 32.7 °F 28.7 °F 30.31 in Calm     85 % 0.00 in
03:59 32.9 °F 28.6 °F 30.31 in Calm     84 % 0.00 in
04:04 33.0 °F 28.7 °F 30.31 in Calm     84 % 0.00 in
04:09 32.8 °F 28.2 °F 30.31 in Calm     83 % 0.00 in
04:14 32.5 °F 27.9 °F 30.31 in Calm     83 % 0.00 in
04:19 32.4 °F 28.1 °F 30.31 in Calm     84 % 0.00 in
04:24 32.2 °F 27.9 °F 30.32 in Calm     84 % 0.00 in
04:29 32.2 °F 28.2 °F 30.31 in Calm     85 % 0.00 in
04:34 32.4 °F 28.4 °F 30.31 in Calm     85 % 0.00 in
04:39 32.8 °F 28.2 °F 30.32 in Calm     83 % 0.00 in
04:44 33.1 °F 28.2 °F 30.32 in Calm     82 % 0.00 in
04:49 33.2 °F 28.0 °F 30.32 in Calm     81 % 0.00 in
04:54 33.1 °F 28.2 °F 30.32 in Calm     82 % 0.00 in
04:59 32.9 °F 28.3 °F 30.32 in Calm     83 % 0.00 in
05:04 32.3 °F 28.0 °F 30.32 in Calm     84 % 0.00 in
05:10 31.7 °F 27.4 °F 30.33 in Calm     84 % 0.00 in
05:15 31.4 °F 27.7 °F 30.33 in Calm     86 % 0.00 in
05:20 31.7 °F 28.6 °F 30.33 in Calm     88 % 0.00 in
05:25 32.0 °F 29.1 °F 30.33 in Calm     89 % 0.00 in
05:30 32.1 °F 29.2 °F 30.33 in Calm     89 % 0.00 in
05:35 32.0 °F 28.8 °F 30.34 in Calm     88 % 0.00 in
05:40 31.8 °F 28.7 °F 30.34 in Calm     88 % 0.00 in
05:45 31.7 °F 28.6 °F 30.34 in Calm     88 % 0.00 in
05:50 31.7 °F 28.6 °F 30.34 in Calm     88 % 0.00 in
05:55 31.6 °F 28.5 °F 30.34 in Calm     88 % 0.00 in
06:00 31.5 °F 28.4 °F 30.34 in Calm     88 % 0.00 in
06:05 31.4 °F 28.3 °F 30.34 in Calm     88 % 0.00 in
06:10 31.2 °F 28.1 °F 30.35 in Calm     88 % 0.00 in
06:15 31.2 °F 28.1 °F 30.35 in Calm     88 % 0.00 in
06:20 31.1 °F 28.0 °F 30.35 in Calm     88 % 0.00 in
06:25 31.2 °F 28.1 °F 30.35 in Calm     88 % 0.00 in
06:30 31.2 °F 28.1 °F 30.35 in Calm     88 % 0.00 in
06:35 31.0 °F 27.9 °F 30.35 in Calm     88 % 0.00 in
06:40 30.9 °F 27.8 °F 30.36 in Calm     88 % 0.00 in
06:45 30.8 °F 27.9 °F 30.36 in Calm     89 % 0.00 in
06:50 30.9 °F 28.0 °F 30.36 in Calm     89 % 0.00 in
06:55 31.1 °F 28.0 °F 30.36 in Calm     88 % 0.00 in
07:00 31.5 °F 28.4 °F 30.36 in Calm     88 % 0.00 in
07:05 31.8 °F 28.4 °F 30.37 in Calm     87 % 0.00 in
07:10 32.1 °F 28.7 °F 30.37 in Calm     87 % 0.00 in
07:15 32.4 °F 29.0 °F 30.37 in Calm     87 % 0.00 in
07:20 32.7 °F 29.5 °F 30.37 in Calm     88 % 0.00 in
07:25 32.9 °F 29.7 °F 30.37 in Calm     88 % 0.00 in
07:30 33.3 °F 30.1 °F 30.37 in Calm     88 % 0.00 in
07:35 34.0 °F 30.8 °F 30.38 in Calm     88 % 0.00 in
07:40 35.5 °F 32.0 °F 30.38 in ESE 1.2 mph 1.2 mph 87 % 0.00 in
07:45 37.2 °F 32.8 °F 30.38 in Calm     84 % 0.00 in
07:50 38.7 °F 33.1 °F 30.38 in Calm     80 % 0.00 in
07:55 39.8 °F 33.2 °F 30.38 in SSE 2.3 mph 2.3 mph 77 % 0.00 in
08:00 40.6 °F 33.0 °F 30.38 in ESE 2.3 mph 2.3 mph 74 % 0.00 in
08:05 41.2 °F 32.9 °F 30.38 in ESE 1.2 mph 1.2 mph 72 % 0.00 in
08:15 42.5 °F 33.4 °F 30.38 in SE 1.2 mph 1.2 mph 70 % 0.00 in
08:20 43.2 °F 33.7 °F 30.39 in SE 3.5 mph 3.5 mph 69 % 0.00 in
08:25 43.7 °F 33.5 °F 30.39 in ESE 3.5 mph 3.5 mph 67 % 0.00 in
08:30 44.4 °F 34.1 °F 30.38 in ESE 1.2 mph 1.2 mph 67 % 0.00 in
08:35 45.1 °F 34.0 °F 30.39 in East 3.5 mph 3.5 mph 65 % 0.00 in
08:40 45.6 °F 34.5 °F 30.38 in SSE 1.2 mph 1.2 mph 65 % 0.00 in
08:45 46.3 °F 34.4 °F 30.39 in ESE 3.5 mph 3.5 mph 63 % 0.00 in
08:50 46.5 °F 33.8 °F 30.38 in East 3.5 mph 3.5 mph 61 % 0.00 in
08:55 46.9 °F 34.6 °F 30.38 in SSE 1.2 mph 1.2 mph 62 % 0.00 in
09:00 48.0 °F 35.2 °F 30.38 in Calm   0.1 mph 61 % 0.00 in
09:05 48.8 °F 35.1 °F 30.38 in East 2.3 mph 2.3 mph 59 % 0.00 in
09:10 49.0 °F 34.4 °F 30.38 in ENE 3.5 mph 3.5 mph 57 % 0.00 in
09:15 49.2 °F 34.2 °F 30.38 in ESE 3.5 mph 3.5 mph 56 % 0.00 in
09:20 49.6 °F 34.1 °F 30.38 in ESE 3.5 mph 3.5 mph 55 % 0.00 in
09:26 50.1 °F 33.6 °F 30.38 in SSE 5.8 mph 5.8 mph 53 % 0.00 in
09:31 50.4 °F 33.9 °F 30.38 in SSE 3.5 mph 3.5 mph 53 % 0.00 in
09:36 50.9 °F 33.9 °F 30.38 in SSE 5.8 mph 5.8 mph 52 % 0.00 in
09:41 51.3 °F 34.3 °F 30.38 in ENE 3.5 mph 3.5 mph 52 % 0.00 in
09:46 51.8 °F 34.7 °F 30.38 in South 4.6 mph 4.6 mph 52 % 0.00 in
09:51 52.5 °F 34.9 °F 30.37 in ESE 4.6 mph 4.6 mph 51 % 0.00 in
09:56 52.9 °F 35.2 °F 30.37 in SSE 3.5 mph 3.5 mph 51 % 0.00 in
10:01 53.0 °F 34.8 °F 30.37 in South 3.5 mph 3.5 mph 50 % 0.00 in
10:06 53.3 °F 35.1 °F 30.37 in South 3.5 mph 3.5 mph 50 % 0.00 in
10:11 53.5 °F 35.3 °F 30.37 in SSE 3.5 mph 3.5 mph 50 % 0.00 in
10:16 53.7 °F 36.0 °F 30.37 in SSE 1.2 mph 1.2 mph 51 % 0.00 in
10:21 53.4 °F 36.7 °F 30.37 in South 3.0 mph 3.0 mph 53 % 0.00 in
10:26 53.9 °F 37.1 °F 30.37 in SSE 3.5 mph 3.5 mph 53 % 0.00 in
10:31 54.1 °F 36.4 °F 30.37 in NE 3.5 mph 3.5 mph 51 % 0.00 in
10:36 54.7 °F 37.4 °F 30.36 in ESE 4.6 mph 4.6 mph 52 % 0.00 in
10:41 54.5 °F 36.7 °F 30.36 in WNW 3.5 mph 3.5 mph 51 % 0.00 in
10:46 54.7 °F 38.4 °F 30.36 in NNW 3.5 mph 3.5 mph 54 % 0.00 in
10:51 55.2 °F 38.4 °F 30.36 in NNW 3.5 mph 3.5 mph 53 % 0.00 in
10:56 55.6 °F 39.2 °F 30.36 in WSW 1.2 mph 1.2 mph 54 % 0.00 in
11:01 56.1 °F 38.2 °F 30.36 in West 2.3 mph 2.3 mph 51 % 0.00 in
11:06 56.1 °F 39.2 °F 30.36 in SSW 3.0 mph 3.0 mph 53 % 0.00 in
11:11 56.6 °F 39.2 °F 30.36 in SSW 3.5 mph 3.5 mph 52 % 0.00 in
11:16 56.9 °F 39.9 °F 30.35 in South 2.3 mph 2.3 mph 53 % 0.00 in
11:21 57.3 °F 39.8 °F 30.35 in SE 3.5 mph 3.5 mph 52 % 0.00 in
11:26 57.1 °F 39.6 °F 30.34 in NW 2.3 mph 2.3 mph 52 % 0.00 in
11:31 56.9 °F 39.9 °F 30.34 in SSE 3.5 mph 3.5 mph 53 % 0.00 in
11:36 57.3 °F 40.3 °F 30.34 in NW 3.5 mph 3.5 mph 53 % 0.00 in
11:41 57.4 °F 40.9 °F 30.34 in SE 3.5 mph 3.5 mph 54 % 0.00 in
11:46 57.4 °F 40.4 °F 30.33 in NNW 2.3 mph 2.3 mph 53 % 0.00 in
11:51 57.4 °F 39.4 °F 30.33 in NW 3.5 mph 3.5 mph 51 % 0.00 in
11:56 57.6 °F 40.1 °F 30.33 in ESE 3.5 mph 3.5 mph 52 % 0.00 in
12:01 58.2 °F 40.1 °F 30.32 in NW 3.5 mph 3.5 mph 51 % 0.00 in
12:06 57.9 °F 39.9 °F 30.32 in NE 2.3 mph 2.3 mph 51 % 0.00 in
12:11 58.6 °F 39.5 °F 30.32 in SW 3.5 mph 3.5 mph 49 % 0.00 in
12:16 58.8 °F 40.2 °F 30.32 in SSE 3.5 mph 3.5 mph 50 % 0.00 in
12:21 59.0 °F 39.9 °F 30.31 in WNW 1.2 mph 1.2 mph 49 % 0.00 in
12:26 59.4 °F 40.7 °F 30.31 in NW 2.3 mph 2.3 mph 50 % 0.00 in
12:31 59.9 °F 40.7 °F 30.31 in WNW 3.0 mph 3.0 mph 49 % 0.00 in
12:36 59.7 °F 38.9 °F 30.31 in NW 3.5 mph 3.5 mph 46 % 0.00 in
12:41 59.1 °F 38.9 °F 30.30 in NW 1.2 mph 1.2 mph 47 % 0.00 in
12:46 58.6 °F 38.4 °F 30.30 in SSW 3.5 mph 3.5 mph 47 % 0.00 in
12:51 59.4 °F 39.1 °F 30.30 in NNW 3.5 mph 3.5 mph 47 % 0.00 in
12:56 59.1 °F 37.8 °F 30.29 in NNW 1.2 mph   45 % 0.00 in
13:01 59.4 °F 36.9 °F 30.29 in NW 1.2 mph 1.4 mph 43 % 0.00 in
13:06 59.0 °F 37.1 °F 30.28 in WNW 5.8 mph 5.8 mph 44 % 0.00 in
13:11 59.6 °F 38.2 °F 30.28 in South 3.5 mph 3.5 mph 45 % 0.00 in
13:16 60.6 °F 36.1 °F 30.28 in NNW 3.5 mph 3.5 mph 40 % 0.00 in
13:22 59.8 °F 36.6 °F 30.28 in South 2.3 mph 2.3 mph 42 % 0.00 in
13:27 60.6 °F 36.8 °F 30.27 in SSE 1.2 mph 1.2 mph 41 % 0.00 in
13:32 61.1 °F 36.6 °F 30.27 in WNW 1.2 mph 1.2 mph 40 % 0.00 in
13:37 61.5 °F 35.6 °F 30.27 in NNW 1.2 mph 1.2 mph 38 % 0.00 in
13:42 61.3 °F 35.5 °F 30.26 in WNW 1.2 mph 1.2 mph 38 % 0.00 in
13:47 60.8 °F 35.7 °F 30.26 in WNW 1.2 mph   39 % 0.00 in
13:52 61.1 °F 36.6 °F 30.26 in East 2.3 mph 2.3 mph 40 % 0.00 in
13:57 61.6 °F 35.7 °F 30.26 in NW 2.3 mph 2.3 mph 38 % 0.00 in
14:02 61.4 °F 36.2 °F 30.26 in North 3.0 mph 3.0 mph 39 % 0.00 in
14:07 61.0 °F 35.8 °F 30.26 in NNE 1.2 mph 1.2 mph 39 % 0.00 in
14:12 60.7 °F 35.6 °F 30.26 in NNW 3.5 mph 3.5 mph 39 % 0.00 in
14:17 60.5 °F 36.7 °F 30.25 in WNW 2.0 mph 2.0 mph 41 % 0.00 in
14:22 60.4 °F 36.6 °F 30.25 in Calm     41 % 0.00 in
14:27 60.5 °F 36.0 °F 30.25 in West 3.0 mph 3.0 mph 40 % 0.00 in
14:32 60.5 °F 35.4 °F 30.24 in NW 3.5 mph 3.5 mph 39 % 0.00 in
14:37 60.5 °F 36.0 °F 30.24 in NW 1.2 mph 1.2 mph 40 % 0.00 in
14:42 60.9 °F 36.4 °F 30.24 in South 2.3 mph 2.3 mph 40 % 0.00 in
14:47 60.9 °F 35.8 °F 30.24 in WSW 3.5 mph 3.5 mph 39 % 0.00 in
14:52 60.8 °F 35.7 °F 30.24 in Calm     39 % 0.00 in
14:57 60.8 °F 35.0 °F 30.24 in WNW 2.3 mph 2.3 mph 38 % 0.00 in
15:02 60.7 °F 34.9 °F 30.23 in Calm     38 % 0.00 in
15:07 60.8 °F 35.7 °F 30.23 in WNW 2.3 mph 2.3 mph 39 % 0.00 in
15:12 60.9 °F 35.1 °F 30.23 in West 3.5 mph 3.5 mph 38 % 0.00 in
15:17 60.8 °F 34.3 °F 30.23 in WNW 3.5 mph 3.5 mph 37 % 0.00 in
15:22 60.5 °F 36.0 °F 30.22 in South 1.2 mph   40 % 0.00 in
15:27 60.7 °F 36.2 °F 30.22 in SSE 2.3 mph 2.3 mph 40 % 0.00 in
15:32 60.9 °F 36.4 °F 30.22 in NW 2.3 mph 2.3 mph 40 % 0.00 in
15:37 60.5 °F 35.4 °F 30.22 in NW 2.0 mph   39 % 0.00 in
15:42 60.2 °F 35.1 °F 30.21 in NW 2.3 mph 2.3 mph 39 % 0.00 in
15:47 60.0 °F 35.0 °F 30.21 in West 1.2 mph 1.2 mph 39 % 0.00 in
15:52 59.9 °F 36.1 °F 30.21 in NW 3.5 mph 3.5 mph 41 % 0.00 in
15:57 59.9 °F 34.9 °F 30.21 in NW 3.5 mph 3.5 mph 39 % 0.00 in
16:02 59.8 °F 34.8 °F 30.21 in NW 3.5 mph 3.5 mph 39 % 0.00 in
16:07 59.7 °F 34.7 °F 30.21 in WNW 2.3 mph 2.3 mph 39 % 0.00 in
16:12 59.8 °F 34.1 °F 30.21 in NW 1.2 mph 1.2 mph 38 % 0.00 in
16:17 60.1 °F 34.4 °F 30.21 in NNW 1.2 mph 1.2 mph 38 % 0.00 in
16:22 60.1 °F 33.7 °F 30.20 in Calm     37 % 0.00 in
16:27 59.8 °F 33.5 °F 30.20 in Calm     37 % 0.00 in
16:32 59.5 °F 33.2 °F 30.20 in Calm     37 % 0.00 in
16:37 59.4 °F 33.1 °F 30.20 in Calm     37 % 0.00 in
16:42 59.1 °F 34.8 °F 30.21 in Calm     40 % 0.00 in
16:47 59.0 °F 34.1 °F 30.20 in NW 1.2 mph   39 % 0.00 in
16:52 58.8 °F 33.9 °F 30.20 in Calm     39 % 0.00 in
16:57 58.6 °F 33.7 °F 30.21 in Calm     39 % 0.00 in
17:02 58.4 °F 34.8 °F 30.20 in Calm     41 % 0.00 in
17:07 58.1 °F 33.9 °F 30.20 in Calm     40 % 0.00 in
17:12 58.0 °F 33.8 °F 30.20 in Calm     40 % 0.00 in
17:17 57.9 °F 34.3 °F 30.20 in Calm     41 % 0.00 in
17:22 57.6 °F 35.2 °F 30.20 in Calm     43 % 0.00 in
17:27 57.2 °F 34.9 °F 30.21 in Calm     43 % 0.00 in
17:32 56.7 °F 35.0 °F 30.21 in Calm     44 % 0.00 in
17:37 56.3 °F 35.2 °F 30.21 in Calm     45 % 0.00 in
17:42 55.8 °F 35.3 °F 30.20 in Calm     46 % 0.00 in
17:47 55.3 °F 35.4 °F 30.21 in Calm     47 % 0.00 in
17:52 54.7 °F 36.4 °F 30.21 in Calm     50 % 0.00 in
17:57 53.9 °F 36.2 °F 30.20 in Calm     51 % 0.00 in
18:02 53.2 °F 36.0 °F 30.21 in Calm     52 % 0.00 in
18:07 52.6 °F 36.4 °F 30.21 in Calm     54 % 0.00 in
18:12 52.0 °F 36.8 °F 30.21 in Calm     56 % 0.00 in
18:17 51.8 °F 36.1 °F 30.21 in SSE 1.0 mph 1.0 mph 55 % 0.00 in
18:22 51.5 °F 36.3 °F 30.21 in Calm     56 % 0.00 in
18:27 51.1 °F 36.4 °F 30.21 in Calm     57 % 0.00 in
18:32 50.8 °F 36.1 °F 30.21 in Calm     57 % 0.00 in
18:37 50.4 °F 36.6 °F 30.21 in Calm     59 % 0.00 in
18:42 49.9 °F 35.7 °F 30.21 in Calm     58 % 0.00 in
18:47 49.4 °F 36.5 °F 30.21 in Calm     61 % 0.00 in
18:52 49.1 °F 36.2 °F 30.21 in Calm     61 % 0.00 in
18:57 48.7 °F 35.8 °F 30.21 in Calm     61 % 0.00 in
19:02 48.2 °F 35.8 °F 30.21 in Calm     62 % 0.00 in
19:07 47.9 °F 35.9 °F 30.21 in Calm     63 % 0.00 in
19:12 47.7 °F 36.5 °F 30.21 in Calm     65 % 0.00 in
19:17 47.5 °F 36.7 °F 30.21 in Calm     66 % 0.00 in
19:22 47.4 °F 36.6 °F 30.21 in Calm     66 % 0.00 in
19:27 47.2 °F 36.0 °F 30.21 in Calm     65 % 0.00 in
19:33 47.1 °F 35.5 °F 30.21 in Calm     64 % 0.00 in
19:38 47.1 °F 35.1 °F 30.21 in Calm     63 % 0.00 in
19:43 47.2 °F 35.2 °F 30.21 in Calm     63 % 0.00 in
19:48 47.2 °F 35.2 °F 30.21 in Calm     63 % 0.00 in
19:53 47.1 °F 35.1 °F 30.21 in Calm     63 % 0.00 in
19:58 47.0 °F 35.0 °F 30.21 in Calm     63 % 0.00 in
20:03 47.3 °F 34.9 °F 30.21 in Calm     62 % 0.00 in
20:08 47.5 °F 34.3 °F 30.21 in Calm     60 % 0.00 in
20:13 47.5 °F 34.7 °F 30.21 in Calm     61 % 0.00 in
20:18 47.4 °F 34.2 °F 30.21 in Calm     60 % 0.00 in
20:23 47.3 °F 34.1 °F 30.21 in Calm     60 % 0.00 in
20:28 47.2 °F 34.0 °F 30.21 in Calm     60 % 0.00 in
20:33 47.1 °F 33.9 °F 30.21 in Calm     60 % 0.00 in
20:38 46.9 °F 33.7 °F 30.21 in Calm     60 % 0.00 in
20:43 46.8 °F 33.6 °F 30.21 in Calm     60 % 0.00 in
20:48 46.5 °F 33.8 °F 30.21 in Calm     61 % 0.00 in
20:53 46.2 °F 33.9 °F 30.22 in Calm     62 % 0.00 in
20:58 45.6 °F 34.5 °F 30.22 in Calm     65 % 0.00 in
21:03 44.9 °F 33.8 °F 30.22 in Calm     65 % 0.00 in
21:08 44.5 °F 34.6 °F 30.22 in Calm     68 % 0.00 in
21:13 44.2 °F 33.9 °F 30.22 in Calm     67 % 0.00 in
21:18 43.7 °F 34.6 °F 30.21 in Calm     70 % 0.00 in
21:23 43.3 °F 34.9 °F 30.21 in Calm     72 % 0.00 in
21:28 42.7 °F 34.3 °F 30.21 in Calm     72 % 0.00 in
21:33 42.5 °F 34.5 °F 30.22 in Calm     73 % 0.00 in
21:38 42.2 °F 34.2 °F 30.21 in Calm     73 % 0.00 in
21:42 41.7 °F 34.0 °F 30.21 in Calm     74 % 0.00 in
21:47 41.1 °F 33.8 °F 30.21 in Calm     75 % 0.00 in
21:52 40.9 °F 33.9 °F 30.21 in Calm     76 % 0.00 in
21:57 41.0 °F 34.0 °F 30.21 in Calm     76 % 0.00 in
22:02 41.3 °F 34.0 °F 30.21 in Calm     75 % 0.00 in
22:07 41.3 °F 34.0 °F 30.21 in Calm     75 % 0.00 in
22:12 41.3 °F 34.3 °F 30.21 in Calm     76 % 0.00 in
22:17 41.2 °F 34.2 °F 30.21 in Calm     76 % 0.00 in
22:22 41.3 °F 34.0 °F 30.21 in Calm     75 % 0.00 in
22:27 41.6 °F 34.3 °F 30.21 in Calm     75 % 0.00 in
22:32 41.7 °F 34.0 °F 30.21 in Calm     74 % 0.00 in
22:37 41.6 °F 33.6 °F 30.21 in Calm     73 % 0.00 in
22:42 40.7 °F 33.1 °F 30.21 in Calm     74 % 0.00 in
22:47 39.9 °F 32.9 °F 30.21 in Calm     76 % 0.00 in
22:52 39.3 °F 33.0 °F 30.21 in Calm     78 % 0.00 in
22:57 38.9 °F 32.9 °F 30.20 in Calm     79 % 0.00 in
23:02 38.6 °F 33.0 °F 30.20 in Calm     80 % 0.00 in
23:07 38.4 °F 33.1 °F 30.20 in Calm     81 % 0.00 in
23:12 38.2 °F 32.9 °F 30.20 in Calm     81 % 0.00 in
23:17 38.1 °F 33.1 °F 30.20 in Calm     82 % 0.00 in
23:22 37.9 °F 32.6 °F 30.20 in Calm     81 % 0.00 in
23:27 37.8 °F 32.8 °F 30.20 in Calm     82 % 0.00 in
23:32 37.7 °F 33.0 °F 30.20 in Calm     83 % 0.00 in
23:37 37.6 °F 32.9 °F 30.20 in Calm     83 % 0.00 in
23:42 37.7 °F 32.7 °F 30.20 in Calm     82 % 0.00 in
23:47 37.7 °F 33.0 °F 30.19 in Calm     83 % 0.00 in
23:52 37.8 °F 32.8 °F 30.19 in Calm     82 % 0.00 in
23:57 37.9 °F 32.9 °F 30.19 in Calm     82 % 0.00 in
Park Place, Exeter, Tulare County, California, USA
Compliments of Weather Underground - 2.75 mb